Time;durP1;ratioP1;P1;durP2;ratioP2;P2;SDS_P1;SDS_P2;PMS_P1;PMS_P2;Temp;Humidity;BMP_temperature;BMP_pressure;BME280_temperature;BME280_humidity;BME280_pressure;Samples;Min_cycle;Max_cycle;Signal;HPM_P1;HPM_P2
2023/07/04 07:01:29;;;;;;;0.10;0.10;;;19.20;99.90;22.70;101137.00;;;;6243306;22;1390698;-64
2023/07/04 07:03:55;;;;;;;3.60;1.23;;;19.70;99.90;23.70;101164.00;;;;6283263;22;20193;-64
2023/07/04 07:06:24;;;;;;;0.43;0.43;;;20.30;99.90;23.10;101190.00;;;;6282085;22;20210;-65
2023/07/04 07:08:50;;;;;;;4.03;1.02;;;20.70;99.90;23.90;101182.00;;;;6282218;22;20198;-64
2023/07/04 07:11:19;;;;;;;2.17;1.17;;;21.00;99.90;24.20;101187.00;;;;6309385;22;20519;-64
2023/07/04 07:13:50;;;;;;;1.77;1.67;;;20.90;99.90;25.00;101170.00;;;;6309638;22;20148;-64
2023/07/04 07:16:28;;;;;;;4.40;1.02;;;21.90;99.90;21.70;101214.00;;;;6282237;22;20144;-64
2023/07/04 07:18:56;;;;;;;1.98;0.80;;;20.60;99.90;22.10;101218.00;;;;6283236;22;20143;-64
2023/07/04 07:21:33;;;;;;;0.10;0.10;;;20.10;99.90;22.80;101207.00;;;;6307871;22;20473;-64
2023/07/04 07:24:01;;;;;;;4.55;1.42;;;19.80;99.90;23.50;101176.00;;;;6309874;22;20160;-64
2023/07/04 07:26:28;;;;;;;0.25;0.25;;;20.40;99.90;22.00;101186.00;;;;6309374;22;20152;-64
2023/07/04 07:28:56;;;;;;;0.52;0.38;;;19.80;99.90;21.60;101214.00;;;;6282026;22;20188;-64
2023/07/04 07:31:29;;;;;;;1.33;0.90;;;19.40;99.90;23.50;101202.00;;;;6309010;22;20576;-64
2023/07/04 07:33:57;;;;;;;2.10;1.00;;;20.20;99.90;24.30;101188.00;;;;6309615;22;20262;-64
2023/07/04 07:36:30;;;;;;;1.35;0.40;;;20.90;99.90;23.80;101204.00;;;;6309110;22;20140;-64
2023/07/04 07:39:08;;;;;;;7.60;1.23;;;21.30;99.90;22.00;101222.00;;;;6309305;22;20155;-64
2023/07/04 07:41:46;;;;;;;2.17;1.23;;;20.50;99.90;21.80;101234.00;;;;6308742;22;20219;-64
2023/07/04 07:44:17;;;;;;;7.47;3.03;;;20.00;99.90;22.20;101221.00;;;;6309146;22;20622;-64
2023/07/04 07:46:56;;;;;;;1.83;0.80;;;19.70;99.90;21.90;101230.00;;;;6308978;22;20576;-64
2023/07/04 07:49:26;;;;;;;2.60;0.52;;;19.90;99.90;24.00;101206.00;;;;6309141;22;20163;-64
2023/07/04 07:51:54;;;;;;;1.35;0.85;;;20.70;99.90;24.10;101210.00;;;;6282302;22;20136;-64
2023/07/04 07:54:23;;;;;;;1.30;0.70;;;20.90;99.90;22.30;101235.00;;;;6309249;22;20136;-64
2023/07/04 07:56:54;;;;;;;0.32;0.32;;;20.40;99.90;23.90;101232.00;;;;6309187;22;20141;-64
2023/07/04 07:59:21;;;;;;;0.10;0.10;;;20.60;99.90;25.40;101209.00;;;;6309168;22;20211;-64
2023/07/04 08:01:55;;;;;;;4.85;0.90;;;21.60;99.90;26.90;101159.00;;;;6281877;22;20295;-65
2023/07/04 08:04:28;;;;;;;3.17;1.13;;;23.00;99.90;23.40;101214.00;;;;6282015;22;20229;-64
2023/07/04 08:06:55;;;;;;;1.35;0.82;;;21.40;99.90;22.70;101218.00;;;;6309091;22;20194;-64
2023/07/04 08:09:25;;;;;;;1.02;0.88;;;20.90;99.90;23.00;101207.00;;;;6308904;22;20198;-64
2023/07/04 08:11:54;;;;;;;4.22;0.40;;;20.60;99.90;22.80;101205.00;;;;6308492;22;20168;-64
2023/07/04 08:14:19;;;;;;;1.80;0.60;;;20.00;99.90;23.30;101210.00;;;;6308732;22;20163;-64
2023/07/04 08:16:51;;;;;;;0.60;0.60;;;20.50;99.90;22.10;101188.00;;;;6307602;22;20157;-64
2023/07/04 08:19:24;;;;;;;0.28;0.28;;;20.10;99.90;22.20;101213.00;;;;6309076;22;20167;-64
2023/07/04 08:21:54;;;;;;;11.48;1.42;;;19.90;99.90;23.40;101196.00;;;;6308655;22;20211;-64
2023/07/04 08:24:28;;;;;;;0.75;0.32;;;20.70;99.90;26.40;101154.00;;;;6309078;22;20141;-64
2023/07/04 08:26:55;;;;;;;0.70;0.50;;;22.30;99.90;23.90;101176.00;;;;6308811;22;20631;-64
2023/07/04 08:29:25;;;;;;;0.52;0.28;;;22.20;99.90;25.00;101160.00;;;;6308939;22;20478;-64
2023/07/04 08:31:54;;;;;;;1.20;1.17;;;22.30;99.90;24.60;101170.00;;;;6308683;22;20190;-64
2023/07/04 08:34:40;;;;;;;0.20;0.20;;;21.80;99.90;27.40;101116.00;;;;6308688;22;20136;-64
2023/07/04 08:37:09;;;;;;;5.38;1.27;;;22.90;99.90;26.10;101159.00;;;;6281339;22;20152;-64
2023/07/04 08:40:05;;;;;;;0.90;0.63;;;23.40;99.90;23.80;101212.00;;;;6308509;22;20140;-64
2023/07/04 08:42:35;;;;;;;1.85;0.80;;;22.10;99.90;22.90;101239.00;;;;6308525;22;20207;-64
2023/07/04 08:45:01;;;;;;;0.45;0.10;;;21.00;99.90;23.40;101237.00;;;;6281583;22;20147;-64
2023/07/04 08:47:34;;;;;;;18.50;1.67;;;20.90;99.90;24.20;101221.00;;;;6281207;22;20161;-63
2023/07/04 08:50:20;;;;;;;3.03;1.15;;;21.30;99.90;22.60;101251.00;;;;6281255;22;20486;-64
2023/07/04 08:53:16;;;;;;;4.57;0.57;;;20.60;99.90;24.00;101233.00;;;;6281390;22;20225;-64
2023/07/04 08:55:54;;;;;;;0.65;0.40;;;20.80;99.90;23.70;101244.00;;;;6308722;22;20437;-64
2023/07/04 08:58:30;;;;;;;0.50;0.43;;;21.00;99.90;22.40;101248.00;;;;6280746;22;20153;-64
2023/07/04 09:01:08;;;;;;;1.70;1.17;;;20.50;99.90;24.10;101212.00;;;;6280884;22;20167;-64
2023/07/04 09:03:48;;;;;;;0.40;0.40;;;21.00;99.90;24.00;101241.00;;;;6281171;22;20180;-64
2023/07/04 09:06:44;;;;;;;0.85;0.70;;;21.40;99.90;24.20;101240.00;;;;6307956;22;20572;-65
2023/07/04 09:09:25;;;;;;;1.48;0.88;;;21.50;99.90;24.60;101239.00;;;;6281155;22;20154;-65
2023/07/04 09:12:02;;;;;;;3.47;1.08;;;21.60;99.90;24.80;101225.00;;;;6308038;22;20188;-64
2023/07/04 09:14:44;;;;;;;0.65;0.40;;;22.10;99.90;25.40;101211.00;;;;6281467;22;20139;-64
2023/07/04 09:17:30;;;;;;;0.95;0.63;;;22.20;99.90;24.20;101255.00;;;;6280251;22;20227;-64
2023/07/04 09:20:05;;;;;;;1.05;0.52;;;21.70;99.90;24.50;101246.00;;;;6280513;22;20630;-64
2023/07/04 09:22:53;;;;;;;1.88;0.60;;;21.60;99.90;26.50;101212.00;;;;6308268;22;20164;-64
2023/07/04 09:25:33;;;;;;;0.93;0.43;;;22.60;99.90;26.20;101224.00;;;;6308483;22;20145;-64
2023/07/04 09:28:04;;;;;;;1.08;1.05;;;23.30;99.90;25.80;101223.00;;;;6280916;22;20183;-64
2023/07/04 09:30:33;;;;;;;0.10;0.10;;;23.00;99.90;24.00;101266.00;;;;6281358;22;20133;-64
2023/07/04 09:33:04;;;;;;;0.50;0.50;;;21.90;99.90;26.10;101235.00;;;;6280691;22;20151;-64
2023/07/04 09:35:33;;;;;;;0.30;0.30;;;22.80;99.90;24.20;101249.00;;;;6307734;22;20137;-64
2023/07/04 09:38:03;;;;;;;1.85;0.65;;;21.90;99.90;24.50;101271.00;;;;6280790;22;20147;-64
2023/07/04 09:40:39;;;;;;;0.10;0.10;;;21.90;99.90;26.90;101209.00;;;;6307864;22;20231;-65
2023/07/04 09:43:09;;;;;;;0.70;0.70;;;23.10;99.90;25.10;101249.00;;;;6307808;22;20272;-64
2023/07/04 09:45:40;;;;;;;1.08;0.73;;;23.00;99.90;24.20;101267.00;;;;6280907;22;20186;-64
2023/07/04 09:48:11;;;;;;;0.30;0.30;;;22.20;99.90;26.20;101241.00;;;;6307910;22;20151;-64
2023/07/04 09:50:48;;;;;;;4.60;1.25;;;22.90;99.90;23.70;101281.00;;;;6281325;22;20611;-64
2023/07/04 09:53:20;;;;;;;0.10;0.10;;;22.30;99.90;27.90;101223.00;;;;6308087;22;20195;-65
2023/07/04 09:56:26;;;;;;;0.40;0.13;;;23.50;99.90;25.90;101257.00;;;;6280420;22;20153;-65
2023/07/04 09:59:14;;;;;;;2.55;1.42;;;23.30;99.90;25.80;101267.00;;;;6307657;22;20156;-64
2023/07/04 10:01:47;;;;;;;0.95;0.63;;;23.40;99.90;23.50;101308.00;;;;6308016;22;20164;-64
2023/07/04 10:04:30;;;;;;;5.15;0.45;;;21.80;99.90;26.90;101256.00;;;;6307814;22;20144;-65
2023/07/04 10:06:57;;;;;;;1.75;0.80;;;22.70;99.90;26.50;101243.00;;;;6280681;22;20172;-64
2023/07/04 10:09:28;;;;;;;3.85;1.50;;;23.10;99.90;24.80;101270.00;;;;6307824;22;20155;-64
2023/07/04 10:12:17;;;;;;;0.20;0.20;;;22.60;99.90;24.60;101283.00;;;;6280731;22;20171;-65
2023/07/04 10:14:53;;;;;;;2.72;1.70;;;22.10;99.90;24.90;101279.00;;;;6307735;22;20144;-65
2023/07/04 10:17:27;;;;;;;1.67;0.80;;;22.20;99.90;23.80;101295.00;;;;6280261;22;20201;-65
2023/07/04 10:20:00;;;;;;;8.02;4.53;;;22.00;99.90;23.70;101288.00;;;;6307623;22;20140;-64
2023/07/04 10:33:47;;;;;;;2.15;1.55;;;23.10;99.90;25.70;101271.00;;;;5070429;28;21097;-66
2023/07/04 10:36:23;;;;;;;0.63;0.55;;;23.10;99.90;24.40;101282.00;;;;5038761;28;20200;-66
2023/07/04 10:38:53;;;;;;;1.85;0.73;;;22.20;99.90;27.00;101248.00;;;;5050501;28;20178;-65
2023/07/04 10:41:45;;;;;;;1.15;0.45;;;22.90;99.90;25.30;101265.00;;;;5049386;28;20190;-65
2023/07/04 10:44:27;;;;;;;1.58;1.00;;;23.00;99.90;25.10;101266.00;;;;5046002;28;20178;-65
2023/07/04 10:47:14;;;;;;;3.03;1.48;;;23.00;99.90;24.90;101285.00;;;;5048829;28;20178;-64
2023/07/04 10:49:50;;;;;;;3.88;1.17;;;22.50;99.90;24.60;101285.00;;;;5046779;28;20174;-65
2023/07/04 10:52:30;;;;;;;0.50;0.50;;;22.50;99.90;25.70;101268.00;;;;5048756;28;20206;-64
2023/07/04 10:55:01;;;;;;;1.00;0.93;;;22.40;99.90;24.90;101275.00;;;;5048789;28;20189;-65
2023/07/04 10:57:56;;;;;;;9.55;1.70;;;22.40;99.90;26.50;101259.00;;;;5048864;28;20206;-64
2023/07/04 11:00:40;;;;;;;1.00;0.90;;;22.70;99.90;24.70;101283.00;;;;5049061;28;20175;-64
2023/07/04 11:03:24;;;;;;;0.20;0.20;;;22.00;99.90;26.30;101264.00;;;;5049806;28;20603;-64
2023/07/04 11:06:07;;;;;;;0.30;0.30;;;22.50;99.90;26.30;101245.00;;;;5048517;28;20185;-65
2023/07/04 11:08:39;;;;;;;2.13;0.90;;;23.10;99.90;26.20;101246.00;;;;5032345;28;20514;-65
2023/07/04 11:11:13;;;;;;;0.52;0.50;;;23.30;99.90;25.20;101249.00;;;;5048306;28;20643;-64
2023/07/04 11:13:53;;;;;;;0.98;0.73;;;22.80;99.90;24.90;101231.00;;;;5048684;28;20181;-64
2023/07/04 11:16:28;;;;;;;0.30;0.30;;;22.30;99.90;26.60;101232.00;;;;5049815;28;20184;-65
2023/07/04 11:19:23;;;;;;;1.30;1.15;;;22.90;99.90;25.60;101230.00;;;;5048802;28;20174;-65
2023/07/04 11:22:06;;;;;;;1.13;1.08;;;23.20;99.90;25.80;101240.00;;;;5049592;28;20186;-64
2023/07/04 11:24:43;;;;;;;2.33;0.85;;;23.00;99.90;25.60;101240.00;;;;5048450;28;20189;-64
2023/07/04 11:27:13;;;;;;;0.10;0.10;;;23.00;99.90;26.80;101225.00;;;;5048613;28;20175;-64
2023/07/04 11:30:21;;;;;;;0.10;0.10;;;22.90;99.90;26.80;101214.00;;;;5049836;28;20182;-64
2023/07/04 11:33:33;;;;;;;0.10;0.10;;;23.20;99.90;27.30;101194.00;;;;5048682;28;20275;-64
2023/07/04 11:36:25;;;;;;;0.38;0.38;;;23.70;99.90;26.60;101186.00;;;;5043849;28;20218;-64
2023/07/04 11:38:57;;;;;;;0.20;0.20;;;23.90;99.90;26.30;101213.00;;;;5039406;28;20636;-64
2023/07/04 11:41:33;;;;;;;0.10;0.10;;;23.00;99.90;26.60;101197.00;;;;5049025;28;20193;-65
2023/07/04 11:44:28;;;;;;;0.90;0.45;;;23.20;99.90;28.10;101167.00;;;;5038893;28;20178;-64
2023/07/04 11:47:03;;;;;;;0.63;0.30;;;24.20;99.90;27.90;101167.00;;;;5034697;28;20179;-65
2023/07/04 11:49:32;;;;;;;8.20;3.15;;;24.90;99.90;25.60;101211.00;;;;5067048;28;20178;-65
2023/07/04 11:52:25;;;;;;;2.78;1.60;;;24.30;99.90;25.60;101199.00;;;;5035642;28;20664;-64
2023/07/04 11:55:00;;;;;;;0.45;0.45;;;23.40;99.90;25.10;101215.00;;;;5025976;28;20186;-64
2023/07/04 11:58:06;;;;;;;0.45;0.45;;;22.80;99.90;26.10;101205.00;;;;5035715;28;20194;-64
2023/07/04 12:00:43;;;;;;;0.20;0.20;;;23.00;99.90;27.60;101191.00;;;;5024735;28;20183;-64
2023/07/04 12:03:18;;;;;;;0.38;0.38;;;23.50;99.90;29.30;101151.00;;;;5035943;28;20641;-65
2023/07/04 12:05:59;;;;;;;2.28;1.00;;;24.70;99.90;27.00;101183.00;;;;5030245;28;20261;-64
2023/07/04 12:08:42;;;;;;;2.05;0.85;;;24.60;99.90;26.70;101186.00;;;;5035314;28;20688;-64
2023/07/04 12:11:20;;;;;;;0.63;0.63;;;24.00;99.90;26.00;101197.00;;;;5059650;28;20182;-64
2023/07/04 12:14:13;;;;;;;2.70;1.60;;;23.40;99.90;26.90;101172.00;;;;5034122;28;20186;-64
2023/07/04 12:17:18;;;;;;;0.93;0.57;;;24.00;99.90;27.00;101174.00;;;;5020419;28;20179;-64
2023/07/04 12:20:00;;;;;;;0.35;0.35;;;23.90;99.90;28.10;101163.00;;;;5016943;28;20180;-64
2023/07/04 12:22:35;;;;;;;0.10;0.10;;;24.40;99.90;29.10;101136.00;;;;5042842;28;20183;-64
2023/07/04 12:25:19;;;;;;;0.80;0.45;;;24.80;99.90;29.90;101180.00;;;;5038114;28;20185;-64
2023/07/04 12:28:00;;;;;;;3.30;1.48;;;25.60;99.90;26.40;101292.00;;;;5034912;28;20265;-64
2023/07/04 12:30:32;;;;;;;1.85;1.23;;;24.80;99.90;25.80;101299.00;;;;5027403;28;20191;-64
2023/07/04 12:33:02;;;;;;;1.45;1.35;;;23.60;99.90;25.20;101299.00;;;;5020768;28;20675;-64
2023/07/04 12:35:38;;;;;;;2.47;1.13;;;22.90;99.90;24.70;101284.00;;;;5035042;28;20202;-64
2023/07/04 12:38:26;;;;;;;0.77;0.77;;;22.50;99.90;26.20;101277.00;;;;5017664;28;20178;-64
2023/07/04 12:41:07;;;;;;;1.10;0.45;;;23.00;99.90;26.70;101264.00;;;;5034003;28;20181;-64
2023/07/04 12:43:39;;;;;;;2.60;1.50;;;23.10;99.90;26.50;101263.00;;;;5034821;28;20312;-64
2023/07/04 12:46:11;;;;;;;1.75;1.55;;;23.30;99.90;27.00;101263.00;;;;5023631;28;20190;-64
2023/07/04 12:49:01;;;;;;;10.18;2.60;;;23.60;99.90;26.70;101261.00;;;;5034400;28;20722;-64
2023/07/04 12:51:30;;;;;;;0.10;0.10;;;23.90;99.90;27.60;101244.00;;;;5027257;28;20301;-64
2023/07/04 12:53:59;;;;;;;0.10;0.10;;;24.00;99.90;29.40;101224.00;;;;5027400;28;20186;-64
2023/07/04 12:56:29;;;;;;;0.10;0.10;;;24.80;99.90;29.30;101247.00;;;;5027184;28;20629;-64
2023/07/04 12:59:31;;;;;;;0.10;0.10;;;25.10;99.90;29.70;101244.00;;;;5034339;28;20225;-64
2023/07/04 13:02:03;;;;;;;5.60;2.08;;;25.10;99.90;27.30;101263.00;;;;5031104;28;20261;-64
2023/07/04 13:04:32;;;;;;;2.47;2.10;;;24.50;99.90;26.40;101251.00;;;;5034642;28;20190;-64
2023/07/04 13:06:58;;;;;;;4.40;1.23;;;23.80;99.90;26.10;101244.00;;;;5034362;28;20701;-65
2023/07/04 13:09:27;;;;;;;0.10;0.10;;;23.50;99.90;28.00;101230.00;;;;5033185;28;20270;-64
2023/07/04 13:11:55;;;;;;;6.00;5.40;;;23.70;99.90;28.30;101213.00;;;;5034313;28;20203;-64
2023/07/04 13:14:29;;;;;;;1.90;1.80;;;24.30;99.90;27.70;101234.00;;;;5033480;28;20182;-64
2023/07/04 13:17:10;;;;;;;0.30;0.25;;;24.10;99.90;29.10;101202.00;;;;5034064;28;20672;-65
2023/07/04 13:19:43;;;;;;;0.30;0.30;;;24.70;99.90;28.10;101223.00;;;;5026414;28;20221;-65
2023/07/04 13:22:18;;;;;;;0.80;0.80;;;24.40;99.90;26.40;101238.00;;;;5033742;28;20190;-65
2023/07/04 13:24:51;;;;;;;0.10;0.10;;;23.90;99.90;27.40;101226.00;;;;5034218;28;20197;-65
2023/07/04 13:27:26;;;;;;;0.10;0.10;;;23.70;99.90;27.90;101222.00;;;;5029341;28;20183;-65
2023/07/04 13:30:02;;;;;;;0.10;0.10;;;24.20;99.90;28.30;101210.00;;;;5031977;28;20182;-65
2023/07/04 13:32:46;;;;;;;0.20;0.20;;;24.20;99.90;26.90;101225.00;;;;5022819;28;20210;-65
2023/07/04 13:35:37;;;;;;;0.40;0.40;;;23.80;99.90;27.80;101219.00;;;;5061114;28;20170;-65
2023/07/04 13:38:04;;;;;;;0.20;0.20;;;24.20;99.90;28.30;101212.00;;;;5033381;28;20233;-65
2023/07/04 13:40:30;;;;;;;0.10;0.10;;;24.40;99.90;28.40;101212.00;;;;5031288;28;20633;-65
2023/07/04 13:43:10;;;;;;;0.10;0.10;;;24.40;99.90;28.60;101191.00;;;;5033667;28;20199;-65
2023/07/04 13:45:37;;;;;;;0.82;0.82;;;24.40;99.90;27.60;101222.00;;;;5033862;28;20183;-65
2023/07/04 13:48:09;;;;;;;0.65;0.65;;;24.20;99.90;26.60;101219.00;;;;5031988;28;20189;-65
2023/07/04 13:50:35;;;;;;;0.65;0.57;;;23.80;99.90;25.90;101225.00;;;;5033908;28;20214;-65
2023/07/04 13:53:08;;;;;;;0.17;0.17;;;23.20;99.90;26.30;101219.00;;;;5033521;28;20187;-65
2023/07/04 13:55:46;;;;;;;0.38;0.38;;;23.10;99.90;26.30;101224.00;;;;5033195;28;20183;-65
2023/07/04 13:58:12;;;;;;;0.28;0.28;;;23.00;99.90;25.80;101211.00;;;;5033401;28;20186;-65
2023/07/04 14:00:42;;;;;;;0.10;0.10;;;22.80;99.90;27.00;101209.00;;;;5032530;28;20178;-65
2023/07/04 14:03:08;;;;;;;0.10;0.10;;;23.10;99.90;27.30;101191.00;;;;5033407;28;20179;-65
2023/07/04 14:05:37;;;;;;;0.10;0.10;;;23.30;99.90;27.60;101189.00;;;;5033154;28;20190;-65
2023/07/04 14:08:12;;;;;;;0.10;0.10;;;23.60;99.90;26.10;101205.00;;;;5033029;28;20174;-65
2023/07/04 14:10:50;;;;;;;1.33;1.05;;;23.30;99.90;25.90;101204.00;;;;5031878;28;20656;-65
2023/07/04 14:13:21;;;;;;;1.05;0.60;;;23.00;99.90;26.40;101197.00;;;;5033135;28;20244;-65
2023/07/04 14:15:58;;;;;;;0.57;0.57;;;22.90;99.90;26.20;101203.00;;;;5033518;28;20190;-65
2023/07/04 14:18:36;;;;;;;0.85;0.85;;;22.80;99.90;25.50;101203.00;;;;5033373;28;20277;-65
2023/07/04 14:21:23;;;;;;;0.20;0.20;;;22.60;99.90;26.80;101188.00;;;;5024884;28;20647;-65
2023/07/04 14:23:53;;;;;;;0.10;0.10;;;23.00;99.90;27.40;101182.00;;;;5031101;28;20177;-65
2023/07/04 14:26:21;;;;;;;3.13;0.40;;;23.40;99.90;26.30;101199.00;;;;5033478;28;20190;-65
2023/07/04 14:28:51;;;;;;;0.10;0.10;;;23.20;99.90;26.10;101194.00;;;;5033153;28;20620;-65
2023/07/04 14:31:20;;;;;;;0.93;0.93;;;22.90;99.90;26.60;101196.00;;;;5031698;28;20198;-65
2023/07/04 14:33:50;;;;;;;0.10;0.10;;;23.10;99.90;26.40;101186.00;;;;5032385;28;20179;-65
2023/07/04 14:36:17;;;;;;;0.45;0.45;;;22.80;99.90;25.90;101184.00;;;;5033058;28;20201;-65
2023/07/04 14:38:42;;;;;;;2.28;0.98;;;22.80;99.90;25.50;101184.00;;;;5032578;28;20661;-65
2023/07/04 14:41:09;;;;;;;0.93;0.93;;;22.60;99.90;25.90;101159.00;;;;5033219;28;20187;-65
2023/07/04 14:43:35;;;;;;;0.47;0.45;;;22.60;99.90;25.20;101176.00;;;;5033083;28;20194;-65
2023/07/04 14:46:06;;;;;;;0.85;0.40;;;22.30;99.90;25.20;101170.00;;;;5032858;28;20240;-65
2023/07/04 14:48:32;;;;;;;2.05;1.15;;;22.30;99.90;25.30;101164.00;;;;5031427;28;20206;-65
2023/07/04 14:51:22;;;;;;;0.10;0.10;;;22.20;99.90;25.50;101163.00;;;;5031903;28;20675;-65
2023/07/04 14:53:48;;;;;;;0.10;0.10;;;22.10;99.90;26.40;101131.00;;;;5064317;28;20653;-65
2023/07/04 14:56:16;;;;;;;0.90;0.90;;;22.60;99.90;25.40;101155.00;;;;5033112;28;20264;-65
2023/07/04 14:58:43;;;;;;;0.10;0.10;;;22.60;99.90;26.40;101141.00;;;;5014974;28;20203;-64
2023/07/04 15:01:22;;;;;;;0.10;0.10;;;22.60;99.90;26.50;101138.00;;;;5033198;28;20186;-65
2023/07/04 15:03:58;;;;;;;0.47;0.47;;;22.60;99.90;26.20;101142.00;;;;5031727;28;20187;-64
2023/07/04 15:06:26;;;;;;;0.17;0.17;;;22.80;99.90;27.00;101109.00;;;;5032746;28;20719;-65
2023/07/04 15:08:52;;;;;;;0.20;0.20;;;22.90;99.90;27.40;101126.00;;;;5032816;28;20175;-65
2023/07/04 15:11:23;;;;;;;0.20;0.20;;;23.20;99.90;26.30;101149.00;;;;5031708;28;20182;-65
2023/07/04 15:13:52;;;;;;;0.63;0.63;;;23.20;99.90;26.90;101126.00;;;;5031505;28;20640;-65
2023/07/04 15:16:23;;;;;;;0.10;0.10;;;23.10;99.90;27.50;101099.00;;;;5032778;28;20719;-65
2023/07/04 15:18:51;;;;;;;0.20;0.20;;;23.30;99.90;28.00;101114.00;;;;5033902;28;20600;-65
2023/07/04 15:21:40;;;;;;;0.75;0.75;;;23.60;99.90;27.00;101127.00;;;;5036234;28;20217;-64
2023/07/04 15:24:06;;;;;;;0.10;0.10;;;23.30;99.90;27.00;101118.00;;;;5035488;28;20186;-65
2023/07/04 15:26:34;;;;;;;0.10;0.10;;;23.10;99.90;27.00;101111.00;;;;5036437;28;20225;-65
2023/07/04 15:29:03;;;;;;;0.10;0.10;;;23.00;99.90;27.70;101110.00;;;;5036516;28;20229;-65
2023/07/04 15:31:30;;;;;;;0.10;0.10;;;23.40;99.90;28.60;101101.00;;;;5035996;28;20210;-65
2023/07/04 15:33:58;;;;;;;0.10;0.10;;;23.80;99.90;27.50;101110.00;;;;5036275;28;20578;-65
2023/07/04 15:36:26;;;;;;;0.10;0.10;;;23.90;99.90;28.30;101106.00;;;;5035520;28;20185;-65
2023/07/04 15:38:58;;;;;;;0.10;0.10;;;23.90;99.90;27.90;101099.00;;;;5036332;28;20269;-65
2023/07/04 15:41:27;;;;;;;0.10;0.10;;;23.90;99.90;28.40;101099.00;;;;5034823;28;20196;-65
2023/07/04 15:43:53;;;;;;;0.10;0.10;;;24.00;99.90;28.60;101100.00;;;;5024396;28;20182;-65
2023/07/04 15:46:20;;;;;;;0.85;0.85;;;24.20;99.90;26.40;101112.00;;;;5030732;28;20190;-65
2023/07/04 15:48:46;;;;;;;0.47;0.40;;;23.50;99.90;26.60;101101.00;;;;5035912;28;20221;-65
2023/07/04 15:51:20;;;;;;;0.10;0.10;;;23.20;99.90;26.20;101090.00;;;;5034091;28;20233;-65
2023/07/04 15:53:50;;;;;;;0.10;0.10;;;22.90;99.90;26.40;101086.00;;;;5036311;28;20192;-65
2023/07/04 15:56:23;;;;;;;0.10;0.10;;;22.90;99.90;27.50;101069.00;;;;5035350;28;20358;-65
2023/07/04 15:58:52;;;;;;;0.20;0.20;;;23.00;99.90;26.90;101061.00;;;;5034422;28;20669;-65
2023/07/04 16:01:19;;;;;;;2.15;1.95;;;23.00;99.90;26.60;101065.00;;;;5034289;28;20170;-65
2023/07/04 16:03:57;;;;;;;0.10;0.10;;;23.00;99.90;27.20;101037.00;;;;5035366;28;20514;-65
2023/07/04 16:06:22;;;;;;;0.20;0.20;;;23.10;99.90;27.40;101053.00;;;;5035212;28;20535;-65
2023/07/04 16:08:50;;;;;;;0.10;0.10;;;23.10;99.90;27.70;101031.00;;;;5035783;28;20174;-65
2023/07/04 16:11:16;;;;;;;0.10;0.10;;;23.40;99.90;27.80;101046.00;;;;5035123;28;20183;-65
2023/07/04 16:13:43;;;;;;;0.10;0.10;;;23.40;99.90;28.00;101039.00;;;;5035343;28;20190;-65
2023/07/04 16:16:13;;;;;;;0.20;0.20;;;23.70;99.90;26.40;101056.00;;;;5035295;28;20687;-65
2023/07/04 16:19:02;;;;;;;1.15;0.28;;;23.40;99.90;25.80;101050.00;;;;5034041;28;20195;-65
2023/07/04 16:21:28;;;;;;;0.52;0.45;;;22.70;99.90;26.70;101039.00;;;;5034663;28;20194;-65
2023/07/04 16:23:54;;;;;;;0.70;0.43;;;22.70;99.90;26.70;101038.00;;;;5035609;28;20514;-65
2023/07/04 16:26:22;;;;;;;0.73;0.73;;;22.70;99.90;25.70;101044.00;;;;5035174;28;20197;-65
2023/07/04 16:28:56;;;;;;;1.75;1.35;;;22.60;99.90;24.80;101038.00;;;;5034114;28;20186;-65
2023/07/04 16:31:25;;;;;;;1.10;1.08;;;22.20;99.90;24.80;101017.00;;;;5034980;28;20661;-65
2023/07/04 16:33:51;;;;;;;0.40;0.40;;;21.90;99.90;24.70;101022.00;;;;5033693;28;20621;-64
2023/07/04 16:36:40;;;;;;;0.30;0.30;;;21.80;99.90;25.10;101005.00;;;;5034688;28;20657;-65
2023/07/04 16:39:12;;;;;;;0.10;0.10;;;21.70;99.90;26.00;100997.00;;;;5034692;28;20179;-65
2023/07/04 16:41:47;;;;;;;0.40;0.40;;;21.90;99.90;26.50;100997.00;;;;5034790;28;20619;-65
2023/07/04 16:44:17;;;;;;;0.63;0.63;;;22.30;99.90;25.60;101015.00;;;;5030669;28;20183;-65
2023/07/04 16:46:53;;;;;;;0.10;0.10;;;22.10;99.90;24.90;101017.00;;;;5032270;28;20636;-65
2023/07/04 16:49:22;;;;;;;1.98;0.60;;;21.80;99.90;24.90;101000.00;;;;5034411;28;20194;-65
2023/07/04 16:51:48;;;;;;;0.40;0.40;;;21.60;99.90;24.10;100990.00;;;;5034350;28;20433;-65
2023/07/04 16:54:16;;;;;;;0.35;0.35;;;21.10;99.90;23.60;100935.00;;;;5034721;28;20656;-65
2023/07/04 16:56:49;;;;;;;0.20;0.20;;;20.60;99.90;23.90;100933.00;;;;5034568;28;20225;-65
2023/07/04 16:59:46;;;;;;;0.20;0.20;;;20.40;99.90;23.30;100896.00;;;;5034507;28;20190;-65
2023/07/04 17:02:15;;;;;;;0.20;0.20;;;20.20;99.90;23.30;100886.00;;;;5030095;28;20222;-65
2023/07/04 17:04:54;;;;;;;0.10;0.10;;;20.00;99.90;23.30;100893.00;;;;5033805;28;20514;-65
2023/07/04 17:07:26;;;;;;;0.30;0.30;;;20.10;99.90;23.70;100883.00;;;;5034126;28;20224;-65
2023/07/04 17:09:57;;;;;;;0.10;0.10;;;20.10;99.90;23.50;100883.00;;;;5034720;28;20236;-65
2023/07/04 17:12:27;;;;;;;0.10;0.10;;;20.10;99.90;24.00;100874.00;;;;5033881;28;20202;-65
2023/07/04 17:15:02;;;;;;;0.10;0.10;;;20.20;99.90;24.40;100869.00;;;;5034133;28;20697;-65
2023/07/04 17:17:37;;;;;;;0.10;0.10;;;20.40;99.90;25.00;100873.00;;;;5033148;28;20178;-64
2023/07/04 17:20:06;;;;;;;0.10;0.10;;;20.70;99.90;24.50;100868.00;;;;5024352;28;20320;-65
2023/07/04 17:22:43;;;;;;;0.20;0.20;;;20.80;99.90;25.00;100865.00;;;;5032535;28;20544;-65
2023/07/04 17:25:16;;;;;;;0.10;0.10;;;21.00;99.90;23.80;100870.00;;;;5032871;28;20261;-65
2023/07/04 17:28:02;;;;;;;0.10;0.10;;;20.80;99.90;23.00;100853.00;;;;5033914;28;20175;-65
2023/07/04 17:30:34;;;;;;;0.10;0.10;;;20.30;99.90;24.30;100856.00;;;;5033973;28;20652;-65
2023/07/04 17:33:11;;;;;;;0.10;0.10;;;20.40;99.90;24.90;100854.00;;;;5033886;28;20213;-65
2023/07/04 17:35:46;;;;;;;0.15;0.15;;;20.80;99.90;24.70;100816.00;;;;5034017;28;20265;-64
2023/07/04 17:38:16;;;;;;;0.10;0.10;;;20.90;99.90;24.20;100835.00;;;;5033700;28;20183;-64
2023/07/04 17:41:04;;;;;;;0.10;0.10;;;20.90;99.90;24.20;100829.00;;;;5032015;28;20190;-64
2023/07/04 17:43:43;;;;;;;0.20;0.20;;;20.50;99.90;25.60;100805.00;;;;5033115;28;20178;-64
2023/07/04 17:46:13;;;;;;;0.20;0.20;;;21.10;99.90;25.30;100793.00;;;;5032944;28;20186;-64
2023/07/04 17:48:42;;;;;;;0.25;0.25;;;21.40;99.90;25.50;100824.00;;;;5033445;28;20205;-64
2023/07/04 17:52:13;;;;;;;0.20;0.20;;;21.40;99.90;26.00;100828.00;;;;5027871;28;20182;-64
2023/07/04 17:54:42;;;;;;;0.20;0.20;;;21.60;99.90;25.70;100811.00;;;;5029586;28;20193;-65
2023/07/04 17:57:16;;;;;;;0.20;0.20;;;21.60;99.90;25.30;100805.00;;;;5033701;28;20185;-64
2023/07/04 18:00:08;;;;;;;0.40;0.40;;;21.60;99.90;25.90;100805.00;;;;5033454;28;20697;-64
2023/07/04 18:02:42;;;;;;;0.20;0.20;;;21.60;99.90;26.20;100816.00;;;;5064548;28;20237;-64
2023/07/04 18:05:57;;;;;;;0.20;0.20;;;22.00;99.90;26.00;100812.00;;;;5033161;28;20193;-64
2023/07/04 18:08:34;;;;;;;0.20;0.20;;;21.80;99.90;23.80;100776.00;;;;5030123;28;20175;-63
2023/07/04 18:11:14;;;;;;;0.20;0.20;;;21.10;99.90;23.40;100760.00;;;;5032583;28;20316;-63
2023/07/04 18:13:42;;;;;;;0.10;0.10;;;20.70;99.90;24.30;100743.00;;;;5032210;28;20198;-63
2023/07/04 18:16:16;;;;;;;0.65;0.65;;;20.70;99.90;24.70;100770.00;;;;5033431;28;20202;-64
2023/07/04 18:18:51;;;;;;;0.20;0.20;;;20.90;99.90;23.30;100746.00;;;;5032989;28;20189;-65
2023/07/04 18:21:24;;;;;;;0.20;0.20;;;20.50;99.90;23.40;100739.00;;;;5033654;28;20191;-64
2023/07/04 18:23:59;;;;;;;0.20;0.20;;;20.30;99.90;22.60;100741.00;;;;5033268;28;20524;-64
2023/07/04 18:26:45;;;;;;;0.10;0.10;;;19.90;99.90;23.40;100746.00;;;;5032968;28;20652;-65
2023/07/04 18:29:16;;;;;;;0.20;0.20;;;20.00;99.90;24.40;100748.00;;;;5032890;28;20178;-65
2023/07/04 18:31:52;;;;;;;0.10;0.10;;;20.20;99.90;24.90;100755.00;;;;5032789;28;20229;-65
2023/07/04 18:34:19;;;;;;;1.13;1.13;;;20.70;99.90;24.70;100715.00;;;;5033326;28;20175;-65